sensor_id;sensor_type;location;lat;lon;timestamp;P1;durP1;ratioP1;P2;durP2;ratioP2
17886;SDS011;9069;52.044;7.472;2023-06-04T00:01:11;2.20;;;1.55;;
17886;SDS011;9069;52.044;7.472;2023-06-04T00:03:42;1.05;;;0.93;;
17886;SDS011;9069;52.044;7.472;2023-06-04T00:06:09;1.40;;;0.90;;
17886;SDS011;9069;52.044;7.472;2023-06-04T00:08:36;1.73;;;0.90;;
17886;SDS011;9069;52.044;7.472;2023-06-04T00:11:03;3.30;;;1.00;;
17886;SDS011;9069;52.044;7.472;2023-06-04T00:13:30;3.17;;;1.13;;
17886;SDS011;9069;52.044;7.472;2023-06-04T00:15:57;3.15;;;1.00;;
17886;SDS011;9069;52.044;7.472;2023-06-04T00:18:24;3.53;;;0.80;;
17886;SDS011;9069;52.044;7.472;2023-06-04T00:20:51;1.00;;;0.98;;
17886;SDS011;9069;52.044;7.472;2023-06-04T00:23:17;3.92;;;1.00;;
17886;SDS011;9069;52.044;7.472;2023-06-04T00:25:44;1.15;;;0.82;;
17886;SDS011;9069;52.044;7.472;2023-06-04T00:28:11;2.05;;;1.05;;
17886;SDS011;9069;52.044;7.472;2023-06-04T00:30:38;1.65;;;1.20;;
17886;SDS011;9069;52.044;7.472;2023-06-04T00:33:05;3.80;;;1.55;;
17886;SDS011;9069;52.044;7.472;2023-06-04T00:35:32;2.42;;;1.00;;
17886;SDS011;9069;52.044;7.472;2023-06-04T00:37:59;2.33;;;1.13;;
17886;SDS011;9069;52.044;7.472;2023-06-04T00:40:26;5.38;;;1.30;;
17886;SDS011;9069;52.044;7.472;2023-06-04T00:42:53;2.00;;;1.02;;
17886;SDS011;9069;52.044;7.472;2023-06-04T00:45:21;2.53;;;1.15;;
17886;SDS011;9069;52.044;7.472;2023-06-04T00:47:52;7.13;;;1.40;;
17886;SDS011;9069;52.044;7.472;2023-06-04T00:50:19;2.58;;;1.08;;
17886;SDS011;9069;52.044;7.472;2023-06-04T00:52:47;1.20;;;0.90;;
17886;SDS011;9069;52.044;7.472;2023-06-04T00:55:16;2.83;;;1.00;;
17886;SDS011;9069;52.044;7.472;2023-06-04T00:57:44;1.48;;;1.17;;
17886;SDS011;9069;52.044;7.472;2023-06-04T01:00:11;1.75;;;1.13;;
17886;SDS011;9069;52.044;7.472;2023-06-04T01:02:40;1.45;;;1.00;;
17886;SDS011;9069;52.044;7.472;2023-06-04T01:08:10;4.38;;;1.13;;
17886;SDS011;9069;52.044;7.472;2023-06-04T01:10:49;4.63;;;1.20;;
17886;SDS011;9069;52.044;7.472;2023-06-04T01:13:18;3.50;;;1.42;;
17886;SDS011;9069;52.044;7.472;2023-06-04T01:15:44;4.65;;;1.20;;
17886;SDS011;9069;52.044;7.472;2023-06-04T01:18:13;2.33;;;1.27;;
17886;SDS011;9069;52.044;7.472;2023-06-04T01:20:58;7.70;;;1.40;;
17886;SDS011;9069;52.044;7.472;2023-06-04T01:26:15;1.38;;;1.15;;
17886;SDS011;9069;52.044;7.472;2023-06-04T01:28:42;2.95;;;1.10;;
17886;SDS011;9069;52.044;7.472;2023-06-04T01:31:11;2.92;;;1.20;;
17886;SDS011;9069;52.044;7.472;2023-06-04T01:33:40;5.38;;;1.13;;
17886;SDS011;9069;52.044;7.472;2023-06-04T01:36:07;1.75;;;1.10;;
17886;SDS011;9069;52.044;7.472;2023-06-04T01:38:36;2.97;;;1.10;;
17886;SDS011;9069;52.044;7.472;2023-06-04T01:41:03;2.38;;;1.02;;
17886;SDS011;9069;52.044;7.472;2023-06-04T01:43:30;1.65;;;1.10;;
17886;SDS011;9069;52.044;7.472;2023-06-04T01:46:01;2.30;;;1.20;;
17886;SDS011;9069;52.044;7.472;2023-06-04T01:48:31;2.30;;;1.25;;
17886;SDS011;9069;52.044;7.472;2023-06-04T01:51:01;1.80;;;1.10;;
17886;SDS011;9069;52.044;7.472;2023-06-04T01:53:28;1.70;;;1.20;;
17886;SDS011;9069;52.044;7.472;2023-06-04T01:55:56;2.90;;;1.00;;
17886;SDS011;9069;52.044;7.472;2023-06-04T01:58:23;2.08;;;1.10;;
17886;SDS011;9069;52.044;7.472;2023-06-04T02:00:53;1.85;;;1.35;;
17886;SDS011;9069;52.044;7.472;2023-06-04T02:03:21;1.63;;;1.10;;
17886;SDS011;9069;52.044;7.472;2023-06-04T02:05:49;2.42;;;0.95;;
17886;SDS011;9069;52.044;7.472;2023-06-04T02:08:16;2.05;;;0.85;;
17886;SDS011;9069;52.044;7.472;2023-06-04T02:10:48;1.83;;;1.10;;
17886;SDS011;9069;52.044;7.472;2023-06-04T02:13:15;4.80;;;1.35;;
17886;SDS011;9069;52.044;7.472;2023-06-04T02:15:42;4.13;;;1.02;;
17886;SDS011;9069;52.044;7.472;2023-06-04T02:18:13;2.42;;;1.25;;
17886;SDS011;9069;52.044;7.472;2023-06-04T02:20:46;2.17;;;1.30;;
17886;SDS011;9069;52.044;7.472;2023-06-04T02:23:15;3.80;;;1.15;;
17886;SDS011;9069;52.044;7.472;2023-06-04T02:25:43;3.53;;;1.13;;
17886;SDS011;9069;52.044;7.472;2023-06-04T02:28:11;1.35;;;0.98;;
17886;SDS011;9069;52.044;7.472;2023-06-04T02:30:39;3.13;;;1.17;;
17886;SDS011;9069;52.044;7.472;2023-06-04T02:33:05;2.15;;;1.33;;
17886;SDS011;9069;52.044;7.472;2023-06-04T02:35:36;2.45;;;1.00;;
17886;SDS011;9069;52.044;7.472;2023-06-04T02:38:03;1.17;;;0.80;;
17886;SDS011;9069;52.044;7.472;2023-06-04T02:40:31;1.77;;;1.05;;
17886;SDS011;9069;52.044;7.472;2023-06-04T02:42:58;2.88;;;1.00;;
17886;SDS011;9069;52.044;7.472;2023-06-04T02:45:25;2.00;;;1.00;;
17886;SDS011;9069;52.044;7.472;2023-06-04T02:47:52;2.40;;;1.25;;
17886;SDS011;9069;52.044;7.472;2023-06-04T02:50:18;1.52;;;1.20;;
17886;SDS011;9069;52.044;7.472;2023-06-04T02:52:46;6.55;;;1.20;;
17886;SDS011;9069;52.044;7.472;2023-06-04T02:55:12;1.77;;;1.10;;
17886;SDS011;9069;52.044;7.472;2023-06-04T02:57:40;5.65;;;1.10;;
17886;SDS011;9069;52.044;7.472;2023-06-04T03:00:12;1.48;;;1.00;;
17886;SDS011;9069;52.044;7.472;2023-06-04T03:02:46;2.50;;;0.95;;
17886;SDS011;9069;52.044;7.472;2023-06-04T03:05:15;2.28;;;1.23;;
17886;SDS011;9069;52.044;7.472;2023-06-04T03:07:45;3.80;;;1.17;;
17886;SDS011;9069;52.044;7.472;2023-06-04T03:10:13;2.88;;;1.38;;
17886;SDS011;9069;52.044;7.472;2023-06-04T03:12:41;2.60;;;1.10;;
17886;SDS011;9069;52.044;7.472;2023-06-04T03:15:08;5.22;;;1.40;;
17886;SDS011;9069;52.044;7.472;2023-06-04T03:17:36;1.45;;;1.20;;
17886;SDS011;9069;52.044;7.472;2023-06-04T03:20:03;1.70;;;1.10;;
17886;SDS011;9069;52.044;7.472;2023-06-04T03:22:31;2.25;;;1.23;;
17886;SDS011;9069;52.044;7.472;2023-06-04T03:25:00;1.58;;;1.20;;
17886;SDS011;9069;52.044;7.472;2023-06-04T03:27:27;1.98;;;1.05;;
17886;SDS011;9069;52.044;7.472;2023-06-04T03:29:54;3.72;;;1.40;;
17886;SDS011;9069;52.044;7.472;2023-06-04T03:32:21;1.90;;;1.52;;
17886;SDS011;9069;52.044;7.472;2023-06-04T03:34:48;2.53;;;1.25;;
17886;SDS011;9069;52.044;7.472;2023-06-04T03:37:17;3.72;;;1.20;;
17886;SDS011;9069;52.044;7.472;2023-06-04T03:39:43;2.50;;;1.50;;
17886;SDS011;9069;52.044;7.472;2023-06-04T03:42:13;4.45;;;1.40;;
17886;SDS011;9069;52.044;7.472;2023-06-04T03:44:40;1.60;;;1.17;;
17886;SDS011;9069;52.044;7.472;2023-06-04T03:47:07;2.40;;;1.13;;
17886;SDS011;9069;52.044;7.472;2023-06-04T03:49:34;4.43;;;1.50;;
17886;SDS011;9069;52.044;7.472;2023-06-04T03:52:01;2.67;;;1.30;;
17886;SDS011;9069;52.044;7.472;2023-06-04T03:54:28;1.73;;;1.33;;
17886;SDS011;9069;52.044;7.472;2023-06-04T03:56:55;6.15;;;1.50;;
17886;SDS011;9069;52.044;7.472;2023-06-04T03:59:22;4.13;;;1.48;;
17886;SDS011;9069;52.044;7.472;2023-06-04T04:01:50;4.30;;;1.70;;
17886;SDS011;9069;52.044;7.472;2023-06-04T04:04:17;6.25;;;1.60;;
17886;SDS011;9069;52.044;7.472;2023-06-04T04:06:44;7.68;;;1.63;;
17886;SDS011;9069;52.044;7.472;2023-06-04T04:09:11;2.10;;;1.67;;
17886;SDS011;9069;52.044;7.472;2023-06-04T04:11:38;4.78;;;1.33;;
17886;SDS011;9069;52.044;7.472;2023-06-04T04:14:05;3.35;;;1.33;;
17886;SDS011;9069;52.044;7.472;2023-06-04T04:16:32;5.13;;;1.63;;
17886;SDS011;9069;52.044;7.472;2023-06-04T04:18:59;4.78;;;1.60;;
17886;SDS011;9069;52.044;7.472;2023-06-04T04:21:26;4.80;;;1.50;;
17886;SDS011;9069;52.044;7.472;2023-06-04T04:23:53;2.08;;;1.58;;
17886;SDS011;9069;52.044;7.472;2023-06-04T04:26:21;4.43;;;1.50;;
17886;SDS011;9069;52.044;7.472;2023-06-04T04:28:52;2.10;;;1.20;;
17886;SDS011;9069;52.044;7.472;2023-06-04T04:31:26;2.95;;;1.60;;
17886;SDS011;9069;52.044;7.472;2023-06-04T04:33:55;3.13;;;1.52;;
17886;SDS011;9069;52.044;7.472;2023-06-04T04:36:22;3.95;;;1.58;;
17886;SDS011;9069;52.044;7.472;2023-06-04T04:38:50;3.00;;;1.40;;
17886;SDS011;9069;52.044;7.472;2023-06-04T04:41:24;4.60;;;1.65;;
17886;SDS011;9069;52.044;7.472;2023-06-04T04:43:53;3.45;;;1.42;;
17886;SDS011;9069;52.044;7.472;2023-06-04T04:46:27;5.80;;;1.85;;
17886;SDS011;9069;52.044;7.472;2023-06-04T04:48:53;2.20;;;1.40;;
17886;SDS011;9069;52.044;7.472;2023-06-04T04:51:20;2.20;;;1.50;;
17886;SDS011;9069;52.044;7.472;2023-06-04T04:53:48;5.72;;;1.55;;
17886;SDS011;9069;52.044;7.472;2023-06-04T04:56:16;1.65;;;1.30;;
17886;SDS011;9069;52.044;7.472;2023-06-04T04:58:47;2.90;;;1.63;;
17886;SDS011;9069;52.044;7.472;2023-06-04T05:01:14;2.88;;;1.30;;
17886;SDS011;9069;52.044;7.472;2023-06-04T05:03:42;1.23;;;1.13;;
17886;SDS011;9069;52.044;7.472;2023-06-04T05:06:11;3.75;;;1.38;;
17886;SDS011;9069;52.044;7.472;2023-06-04T05:08:38;3.38;;;1.52;;
17886;SDS011;9069;52.044;7.472;2023-06-04T05:11:06;2.70;;;1.38;;
17886;SDS011;9069;52.044;7.472;2023-06-04T05:13:34;4.85;;;1.83;;
17886;SDS011;9069;52.044;7.472;2023-06-04T05:16:04;3.05;;;1.60;;
17886;SDS011;9069;52.044;7.472;2023-06-04T05:18:38;2.63;;;1.30;;
17886;SDS011;9069;52.044;7.472;2023-06-04T05:21:09;2.42;;;1.50;;
17886;SDS011;9069;52.044;7.472;2023-06-04T05:23:42;4.55;;;1.40;;
17886;SDS011;9069;52.044;7.472;2023-06-04T05:26:11;1.73;;;1.20;;
17886;SDS011;9069;52.044;7.472;2023-06-04T05:28:38;4.53;;;1.83;;
17886;SDS011;9069;52.044;7.472;2023-06-04T05:31:11;3.47;;;1.70;;
17886;SDS011;9069;52.044;7.472;2023-06-04T05:33:39;3.22;;;1.42;;
17886;SDS011;9069;52.044;7.472;2023-06-04T05:36:11;4.30;;;1.35;;
17886;SDS011;9069;52.044;7.472;2023-06-04T05:38:46;3.92;;;1.45;;
17886;SDS011;9069;52.044;7.472;2023-06-04T05:41:15;3.25;;;1.38;;
17886;SDS011;9069;52.044;7.472;2023-06-04T05:43:43;3.50;;;1.27;;
17886;SDS011;9069;52.044;7.472;2023-06-04T05:46:12;4.55;;;1.77;;
17886;SDS011;9069;52.044;7.472;2023-06-04T05:48:40;1.45;;;1.25;;
17886;SDS011;9069;52.044;7.472;2023-06-04T05:51:07;1.52;;;1.40;;
17886;SDS011;9069;52.044;7.472;2023-06-04T05:53:36;3.40;;;1.45;;
17886;SDS011;9069;52.044;7.472;2023-06-04T05:56:03;4.57;;;1.60;;
17886;SDS011;9069;52.044;7.472;2023-06-04T05:58:32;4.03;;;2.10;;
17886;SDS011;9069;52.044;7.472;2023-06-04T06:01:01;2.33;;;1.50;;
17886;SDS011;9069;52.044;7.472;2023-06-04T06:03:27;3.20;;;1.48;;
17886;SDS011;9069;52.044;7.472;2023-06-04T06:05:56;2.55;;;1.48;;
17886;SDS011;9069;52.044;7.472;2023-06-04T06:08:25;2.08;;;1.52;;
17886;SDS011;9069;52.044;7.472;2023-06-04T06:10:53;2.97;;;1.55;;
17886;SDS011;9069;52.044;7.472;2023-06-04T06:13:20;3.80;;;1.60;;
17886;SDS011;9069;52.044;7.472;2023-06-04T06:15:47;2.30;;;1.35;;
17886;SDS011;9069;52.044;7.472;2023-06-04T06:18:19;2.50;;;2.03;;
17886;SDS011;9069;52.044;7.472;2023-06-04T06:20:46;3.85;;;1.67;;
17886;SDS011;9069;52.044;7.472;2023-06-04T06:23:12;2.67;;;1.73;;
17886;SDS011;9069;52.044;7.472;2023-06-04T06:25:42;2.28;;;1.65;;
17886;SDS011;9069;52.044;7.472;2023-06-04T06:28:17;2.72;;;1.40;;
17886;SDS011;9069;52.044;7.472;2023-06-04T06:30:45;3.50;;;1.55;;
17886;SDS011;9069;52.044;7.472;2023-06-04T06:33:13;1.95;;;1.50;;
17886;SDS011;9069;52.044;7.472;2023-06-04T06:35:40;4.15;;;1.67;;
17886;SDS011;9069;52.044;7.472;2023-06-04T06:38:07;3.72;;;1.73;;
17886;SDS011;9069;52.044;7.472;2023-06-04T06:40:34;6.72;;;1.80;;
17886;SDS011;9069;52.044;7.472;2023-06-04T06:43:01;3.28;;;1.67;;
17886;SDS011;9069;52.044;7.472;2023-06-04T06:45:28;3.67;;;1.88;;
17886;SDS011;9069;52.044;7.472;2023-06-04T06:47:55;4.13;;;1.45;;
17886;SDS011;9069;52.044;7.472;2023-06-04T06:50:22;6.25;;;1.63;;
17886;SDS011;9069;52.044;7.472;2023-06-04T06:52:49;2.00;;;1.20;;
17886;SDS011;9069;52.044;7.472;2023-06-04T06:55:16;1.70;;;1.45;;
17886;SDS011;9069;52.044;7.472;2023-06-04T06:57:43;2.50;;;1.48;;
17886;SDS011;9069;52.044;7.472;2023-06-04T07:00:10;2.38;;;1.35;;
17886;SDS011;9069;52.044;7.472;2023-06-04T07:02:37;3.40;;;1.40;;
17886;SDS011;9069;52.044;7.472;2023-06-04T07:05:04;3.67;;;1.40;;
17886;SDS011;9069;52.044;7.472;2023-06-04T07:07:31;5.40;;;1.45;;
17886;SDS011;9069;52.044;7.472;2023-06-04T07:09:58;2.55;;;1.50;;
17886;SDS011;9069;52.044;7.472;2023-06-04T07:12:25;2.60;;;1.30;;
17886;SDS011;9069;52.044;7.472;2023-06-04T07:14:51;2.20;;;1.30;;
17886;SDS011;9069;52.044;7.472;2023-06-04T07:17:18;3.55;;;1.17;;
17886;SDS011;9069;52.044;7.472;2023-06-04T07:19:45;2.05;;;1.20;;
17886;SDS011;9069;52.044;7.472;2023-06-04T07:22:11;1.90;;;1.38;;
17886;SDS011;9069;52.044;7.472;2023-06-04T07:24:38;2.38;;;1.52;;
17886;SDS011;9069;52.044;7.472;2023-06-04T07:27:14;3.55;;;1.23;;
17886;SDS011;9069;52.044;7.472;2023-06-04T07:29:44;1.45;;;1.10;;
17886;SDS011;9069;52.044;7.472;2023-06-04T07:32:12;2.17;;;1.00;;
17886;SDS011;9069;52.044;7.472;2023-06-04T07:34:39;1.02;;;0.90;;
17886;SDS011;9069;52.044;7.472;2023-06-04T07:37:06;1.67;;;1.10;;
17886;SDS011;9069;52.044;7.472;2023-06-04T07:39:34;2.15;;;1.00;;
17886;SDS011;9069;52.044;7.472;2023-06-04T07:42:01;6.50;;;1.40;;
17886;SDS011;9069;52.044;7.472;2023-06-04T07:44:27;1.85;;;0.93;;
17886;SDS011;9069;52.044;7.472;2023-06-04T07:46:54;1.63;;;0.80;;
17886;SDS011;9069;52.044;7.472;2023-06-04T07:49:21;1.42;;;1.13;;
17886;SDS011;9069;52.044;7.472;2023-06-04T07:51:48;2.50;;;1.23;;
17886;SDS011;9069;52.044;7.472;2023-06-04T07:54:14;4.88;;;1.25;;
17886;SDS011;9069;52.044;7.472;2023-06-04T07:56:42;5.15;;;1.08;;
17886;SDS011;9069;52.044;7.472;2023-06-04T07:59:09;2.78;;;1.10;;
17886;SDS011;9069;52.044;7.472;2023-06-04T08:01:36;2.63;;;1.30;;
17886;SDS011;9069;52.044;7.472;2023-06-04T08:04:03;1.38;;;0.90;;
17886;SDS011;9069;52.044;7.472;2023-06-04T08:06:30;1.73;;;0.80;;
17886;SDS011;9069;52.044;7.472;2023-06-04T08:08:56;2.30;;;1.10;;
17886;SDS011;9069;52.044;7.472;2023-06-04T08:11:23;1.60;;;0.90;;
17886;SDS011;9069;52.044;7.472;2023-06-04T08:13:50;4.15;;;1.10;;
17886;SDS011;9069;52.044;7.472;2023-06-04T08:16:17;1.60;;;1.15;;
17886;SDS011;9069;52.044;7.472;2023-06-04T08:18:44;1.42;;;0.90;;
17886;SDS011;9069;52.044;7.472;2023-06-04T08:21:11;2.83;;;0.90;;
17886;SDS011;9069;52.044;7.472;2023-06-04T08:23:38;3.13;;;0.85;;
17886;SDS011;9069;52.044;7.472;2023-06-04T08:26:06;2.25;;;1.00;;
17886;SDS011;9069;52.044;7.472;2023-06-04T08:28:34;2.75;;;1.23;;
17886;SDS011;9069;52.044;7.472;2023-06-04T08:31:01;1.30;;;0.80;;
17886;SDS011;9069;52.044;7.472;2023-06-04T08:33:28;2.60;;;0.90;;
17886;SDS011;9069;52.044;7.472;2023-06-04T08:35:54;1.38;;;1.10;;
17886;SDS011;9069;52.044;7.472;2023-06-04T08:38:21;2.25;;;0.90;;
17886;SDS011;9069;52.044;7.472;2023-06-04T08:40:49;2.58;;;0.85;;
17886;SDS011;9069;52.044;7.472;2023-06-04T08:43:19;3.35;;;0.98;;
17886;SDS011;9069;52.044;7.472;2023-06-04T08:45:47;5.30;;;0.75;;
17886;SDS011;9069;52.044;7.472;2023-06-04T08:48:16;0.90;;;0.80;;
17886;SDS011;9069;52.044;7.472;2023-06-04T08:50:47;2.17;;;0.98;;
17886;SDS011;9069;52.044;7.472;2023-06-04T08:53:15;1.00;;;0.60;;
17886;SDS011;9069;52.044;7.472;2023-06-04T08:55:42;1.27;;;0.90;;
17886;SDS011;9069;52.044;7.472;2023-06-04T08:58:09;2.33;;;0.90;;
17886;SDS011;9069;52.044;7.472;2023-06-04T09:00:37;1.35;;;0.90;;
17886;SDS011;9069;52.044;7.472;2023-06-04T09:03:03;1.08;;;0.63;;
17886;SDS011;9069;52.044;7.472;2023-06-04T09:05:30;1.05;;;0.90;;
17886;SDS011;9069;52.044;7.472;2023-06-04T09:08:00;2.00;;;1.02;;
17886;SDS011;9069;52.044;7.472;2023-06-04T09:10:28;1.73;;;1.00;;
17886;SDS011;9069;52.044;7.472;2023-06-04T09:12:56;2.90;;;0.90;;
17886;SDS011;9069;52.044;7.472;2023-06-04T09:15:26;2.13;;;0.90;;
17886;SDS011;9069;52.044;7.472;2023-06-04T09:17:52;7.75;;;0.88;;
17886;SDS011;9069;52.044;7.472;2023-06-04T09:20:22;0.65;;;0.60;;
17886;SDS011;9069;52.044;7.472;2023-06-04T09:22:50;0.70;;;0.60;;
17886;SDS011;9069;52.044;7.472;2023-06-04T09:25:21;0.90;;;0.77;;
17886;SDS011;9069;52.044;7.472;2023-06-04T09:27:51;0.88;;;0.80;;
17886;SDS011;9069;52.044;7.472;2023-06-04T09:30:18;0.63;;;0.60;;
17886;SDS011;9069;52.044;7.472;2023-06-04T09:32:45;1.27;;;0.90;;
17886;SDS011;9069;52.044;7.472;2023-06-04T09:35:13;2.33;;;0.80;;
17886;SDS011;9069;52.044;7.472;2023-06-04T09:37:41;2.40;;;0.70;;
17886;SDS011;9069;52.044;7.472;2023-06-04T09:40:09;3.70;;;0.90;;
17886;SDS011;9069;52.044;7.472;2023-06-04T09:45:26;1.75;;;0.80;;
17886;SDS011;9069;52.044;7.472;2023-06-04T09:47:54;5.63;;;0.75;;
17886;SDS011;9069;52.044;7.472;2023-06-04T09:50:31;1.38;;;0.75;;
17886;SDS011;9069;52.044;7.472;2023-06-04T09:55:57;1.88;;;0.75;;
17886;SDS011;9069;52.044;7.472;2023-06-04T09:58:28;2.40;;;0.70;;
17886;SDS011;9069;52.044;7.472;2023-06-04T10:00:56;1.05;;;0.70;;
17886;SDS011;9069;52.044;7.472;2023-06-04T10:03:24;2.42;;;0.60;;
17886;SDS011;9069;52.044;7.472;2023-06-04T10:05:53;0.82;;;0.80;;
17886;SDS011;9069;52.044;7.472;2023-06-04T10:08:22;2.08;;;0.88;;
17886;SDS011;9069;52.044;7.472;2023-06-04T10:10:54;0.82;;;0.73;;
17886;SDS011;9069;52.044;7.472;2023-06-04T10:13:23;1.45;;;0.90;;
17886;SDS011;9069;52.044;7.472;2023-06-04T10:15:52;1.05;;;0.68;;
17886;SDS011;9069;52.044;7.472;2023-06-04T10:18:22;3.15;;;1.00;;
17886;SDS011;9069;52.044;7.472;2023-06-04T10:20:50;2.53;;;0.85;;
17886;SDS011;9069;52.044;7.472;2023-06-04T10:23:20;1.67;;;0.70;;
17886;SDS011;9069;52.044;7.472;2023-06-04T10:25:48;2.78;;;0.80;;
17886;SDS011;9069;52.044;7.472;2023-06-04T10:28:20;1.75;;;0.70;;
17886;SDS011;9069;52.044;7.472;2023-06-04T10:30:48;0.80;;;0.80;;
17886;SDS011;9069;52.044;7.472;2023-06-04T10:33:19;2.60;;;0.80;;
17886;SDS011;9069;52.044;7.472;2023-06-04T10:35:52;0.88;;;0.88;;
17886;SDS011;9069;52.044;7.472;2023-06-04T10:38:20;2.17;;;0.80;;
17886;SDS011;9069;52.044;7.472;2023-06-04T10:40:48;1.20;;;0.80;;
17886;SDS011;9069;52.044;7.472;2023-06-04T10:43:15;1.90;;;0.80;;
17886;SDS011;9069;52.044;7.472;2023-06-04T10:45:42;3.08;;;0.88;;
17886;SDS011;9069;52.044;7.472;2023-06-04T10:48:09;1.23;;;0.80;;
17886;SDS011;9069;52.044;7.472;2023-06-04T10:50:48;3.13;;;0.88;;
17886;SDS011;9069;52.044;7.472;2023-06-04T10:53:16;1.08;;;0.80;;
17886;SDS011;9069;52.044;7.472;2023-06-04T10:55:45;1.33;;;0.93;;
17886;SDS011;9069;52.044;7.472;2023-06-04T10:58:13;1.17;;;0.90;;
17886;SDS011;9069;52.044;7.472;2023-06-04T11:00:41;0.65;;;0.60;;
17886;SDS011;9069;52.044;7.472;2023-06-04T11:03:10;2.33;;;0.68;;
17886;SDS011;9069;52.044;7.472;2023-06-04T11:05:38;1.25;;;0.95;;
17886;SDS011;9069;52.044;7.472;2023-06-04T11:08:06;1.20;;;0.80;;
17886;SDS011;9069;52.044;7.472;2023-06-04T11:10:36;1.10;;;0.63;;
17886;SDS011;9069;52.044;7.472;2023-06-04T11:13:04;1.40;;;0.88;;
17886;SDS011;9069;52.044;7.472;2023-06-04T11:15:44;1.60;;;0.80;;
17886;SDS011;9069;52.044;7.472;2023-06-04T11:18:13;1.00;;;0.60;;
17886;SDS011;9069;52.044;7.472;2023-06-04T11:20:44;1.48;;;0.80;;
17886;SDS011;9069;52.044;7.472;2023-06-04T11:23:13;0.77;;;0.63;;
17886;SDS011;9069;52.044;7.472;2023-06-04T11:25:42;0.73;;;0.70;;
17886;SDS011;9069;52.044;7.472;2023-06-04T11:28:16;1.52;;;0.90;;
17886;SDS011;9069;52.044;7.472;2023-06-04T11:30:59;1.88;;;0.88;;
17886;SDS011;9069;52.044;7.472;2023-06-04T11:33:42;1.85;;;1.10;;
17886;SDS011;9069;52.044;7.472;2023-06-04T11:36:10;2.45;;;0.90;;
17886;SDS011;9069;52.044;7.472;2023-06-04T11:38:54;2.15;;;1.00;;
17886;SDS011;9069;52.044;7.472;2023-06-04T11:41:22;0.80;;;0.80;;
17886;SDS011;9069;52.044;7.472;2023-06-04T11:43:50;2.88;;;0.90;;
17886;SDS011;9069;52.044;7.472;2023-06-04T11:46:17;0.60;;;0.60;;
17886;SDS011;9069;52.044;7.472;2023-06-04T11:48:45;2.15;;;0.93;;
17886;SDS011;9069;52.044;7.472;2023-06-04T11:51:12;1.00;;;0.88;;
17886;SDS011;9069;52.044;7.472;2023-06-04T11:53:39;1.20;;;0.85;;
17886;SDS011;9069;52.044;7.472;2023-06-04T11:56:06;0.73;;;0.60;;
17886;SDS011;9069;52.044;7.472;2023-06-04T11:58:33;3.80;;;0.80;;
17886;SDS011;9069;52.044;7.472;2023-06-04T12:01:00;1.27;;;0.70;;
17886;SDS011;9069;52.044;7.472;2023-06-04T12:03:34;1.48;;;0.90;;
17886;SDS011;9069;52.044;7.472;2023-06-04T12:06:37;1.35;;;0.80;;
17886;SDS011;9069;52.044;7.472;2023-06-04T12:08:56;1.15;;;0.90;;
17886;SDS011;9069;52.044;7.472;2023-06-04T12:11:24;1.10;;;0.80;;
17886;SDS011;9069;52.044;7.472;2023-06-04T12:14:06;1.35;;;0.75;;
17886;SDS011;9069;52.044;7.472;2023-06-04T12:16:33;1.58;;;0.88;;
17886;SDS011;9069;52.044;7.472;2023-06-04T12:19:04;1.27;;;0.82;;
17886;SDS011;9069;52.044;7.472;2023-06-04T12:21:38;2.75;;;0.60;;
17886;SDS011;9069;52.044;7.472;2023-06-04T12:26:36;1.25;;;0.80;;
17886;SDS011;9069;52.044;7.472;2023-06-04T12:29:16;0.93;;;0.80;;
17886;SDS011;9069;52.044;7.472;2023-06-04T12:31:46;0.70;;;0.63;;
17886;SDS011;9069;52.044;7.472;2023-06-04T12:34:13;1.55;;;0.90;;
17886;SDS011;9069;52.044;7.472;2023-06-04T12:36:40;1.50;;;0.90;;
17886;SDS011;9069;52.044;7.472;2023-06-04T12:39:09;1.75;;;0.90;;
17886;SDS011;9069;52.044;7.472;2023-06-04T12:41:35;0.85;;;0.80;;
17886;SDS011;9069;52.044;7.472;2023-06-04T12:44:02;0.88;;;0.68;;
17886;SDS011;9069;52.044;7.472;2023-06-04T12:46:29;2.25;;;1.00;;
17886;SDS011;9069;52.044;7.472;2023-06-04T12:48:56;1.75;;;0.70;;
17886;SDS011;9069;52.044;7.472;2023-06-04T12:51:23;1.63;;;1.05;;
17886;SDS011;9069;52.044;7.472;2023-06-04T12:53:49;3.17;;;0.93;;
17886;SDS011;9069;52.044;7.472;2023-06-04T12:56:17;0.98;;;0.88;;
17886;SDS011;9069;52.044;7.472;2023-06-04T12:58:44;1.65;;;0.85;;
17886;SDS011;9069;52.044;7.472;2023-06-04T13:01:11;2.97;;;1.00;;
17886;SDS011;9069;52.044;7.472;2023-06-04T13:03:39;0.80;;;0.80;;
17886;SDS011;9069;52.044;7.472;2023-06-04T13:06:07;5.20;;;1.48;;
17886;SDS011;9069;52.044;7.472;2023-06-04T13:08:34;0.88;;;0.73;;
17886;SDS011;9069;52.044;7.472;2023-06-04T13:11:02;1.90;;;0.88;;
17886;SDS011;9069;52.044;7.472;2023-06-04T13:13:29;2.55;;;0.98;;
17886;SDS011;9069;52.044;7.472;2023-06-04T13:15:56;2.33;;;1.00;;
17886;SDS011;9069;52.044;7.472;2023-06-04T13:18:23;1.20;;;0.98;;
17886;SDS011;9069;52.044;7.472;2023-06-04T13:20:49;2.00;;;1.00;;
17886;SDS011;9069;52.044;7.472;2023-06-04T13:23:16;1.55;;;0.90;;
17886;SDS011;9069;52.044;7.472;2023-06-04T13:25:43;1.67;;;0.90;;
17886;SDS011;9069;52.044;7.472;2023-06-04T13:28:10;1.73;;;0.85;;
17886;SDS011;9069;52.044;7.472;2023-06-04T13:30:38;1.98;;;0.80;;
17886;SDS011;9069;52.044;7.472;2023-06-04T13:33:05;1.33;;;0.90;;
17886;SDS011;9069;52.044;7.472;2023-06-04T13:35:32;0.80;;;0.80;;
17886;SDS011;9069;52.044;7.472;2023-06-04T13:37:59;2.03;;;0.93;;
17886;SDS011;9069;52.044;7.472;2023-06-04T13:40:26;1.02;;;0.90;;
17886;SDS011;9069;52.044;7.472;2023-06-04T13:42:53;2.00;;;0.95;;
17886;SDS011;9069;52.044;7.472;2023-06-04T13:45:20;6.38;;;1.13;;
17886;SDS011;9069;52.044;7.472;2023-06-04T13:47:47;1.42;;;0.93;;
17886;SDS011;9069;52.044;7.472;2023-06-04T13:50:14;2.30;;;1.00;;
17886;SDS011;9069;52.044;7.472;2023-06-04T13:52:41;1.40;;;0.90;;
17886;SDS011;9069;52.044;7.472;2023-06-04T13:55:08;1.30;;;0.77;;
17886;SDS011;9069;52.044;7.472;2023-06-04T13:57:35;1.23;;;1.05;;
17886;SDS011;9069;52.044;7.472;2023-06-04T14:00:02;2.78;;;1.05;;
17886;SDS011;9069;52.044;7.472;2023-06-04T14:02:31;1.10;;;1.00;;
17886;SDS011;9069;52.044;7.472;2023-06-04T14:04:58;1.50;;;0.80;;
17886;SDS011;9069;52.044;7.472;2023-06-04T14:07:25;0.95;;;0.80;;
17886;SDS011;9069;52.044;7.472;2023-06-04T14:09:52;1.45;;;1.13;;
17886;SDS011;9069;52.044;7.472;2023-06-04T14:12:21;0.82;;;0.82;;
17886;SDS011;9069;52.044;7.472;2023-06-04T14:14:48;2.38;;;0.80;;
17886;SDS011;9069;52.044;7.472;2023-06-04T14:17:16;1.10;;;0.90;;
17886;SDS011;9069;52.044;7.472;2023-06-04T14:19:43;1.65;;;1.00;;
17886;SDS011;9069;52.044;7.472;2023-06-04T14:22:10;2.22;;;1.30;;
17886;SDS011;9069;52.044;7.472;2023-06-04T14:24:39;2.17;;;1.27;;
17886;SDS011;9069;52.044;7.472;2023-06-04T14:27:06;2.70;;;1.05;;
17886;SDS011;9069;52.044;7.472;2023-06-04T14:29:34;2.33;;;0.80;;
17886;SDS011;9069;52.044;7.472;2023-06-04T14:32:06;1.23;;;0.90;;
17886;SDS011;9069;52.044;7.472;2023-06-04T14:34:33;1.08;;;0.85;;
17886;SDS011;9069;52.044;7.472;2023-06-04T14:37:00;1.80;;;0.98;;
17886;SDS011;9069;52.044;7.472;2023-06-04T14:39:27;1.42;;;0.98;;
17886;SDS011;9069;52.044;7.472;2023-06-04T14:41:54;1.58;;;1.00;;
17886;SDS011;9069;52.044;7.472;2023-06-04T14:44:21;0.82;;;0.82;;
17886;SDS011;9069;52.044;7.472;2023-06-04T14:46:48;2.15;;;1.00;;
17886;SDS011;9069;52.044;7.472;2023-06-04T14:49:17;1.88;;;1.25;;
17886;SDS011;9069;52.044;7.472;2023-06-04T14:51:44;1.05;;;0.95;;
17886;SDS011;9069;52.044;7.472;2023-06-04T14:54:12;1.33;;;0.80;;
17886;SDS011;9069;52.044;7.472;2023-06-04T14:56:39;1.25;;;0.85;;
17886;SDS011;9069;52.044;7.472;2023-06-04T14:59:06;2.72;;;1.23;;
17886;SDS011;9069;52.044;7.472;2023-06-04T15:01:35;3.28;;;1.15;;
17886;SDS011;9069;52.044;7.472;2023-06-04T15:04:03;3.17;;;1.10;;
17886;SDS011;9069;52.044;7.472;2023-06-04T15:06:30;1.60;;;1.08;;
17886;SDS011;9069;52.044;7.472;2023-06-04T15:08:57;3.45;;;1.10;;
17886;SDS011;9069;52.044;7.472;2023-06-04T15:11:24;3.53;;;1.20;;
17886;SDS011;9069;52.044;7.472;2023-06-04T15:13:54;1.83;;;1.15;;
17886;SDS011;9069;52.044;7.472;2023-06-04T15:16:21;1.92;;;1.27;;
17886;SDS011;9069;52.044;7.472;2023-06-04T15:18:49;1.73;;;1.00;;
17886;SDS011;9069;52.044;7.472;2023-06-04T15:21:16;1.52;;;0.73;;